createdAt,value
2017-10-02T00:00:52.951Z,12.30
2017-10-02T00:03:21.342Z,12.40
2017-10-02T00:05:48.910Z,12.40
2017-10-02T00:08:16.478Z,12.40
2017-10-02T00:10:44.115Z,12.40
2017-10-02T00:13:11.692Z,12.40
2017-10-02T00:15:39.272Z,12.30
2017-10-02T00:18:07.246Z,12.30
2017-10-02T00:20:35.445Z,12.30
2017-10-02T00:23:03.784Z,12.40
2017-10-02T00:25:31.415Z,12.30
2017-10-02T00:27:58.990Z,12.40
2017-10-02T00:30:27.335Z,12.40
2017-10-02T00:32:55.067Z,12.40
2017-10-02T00:35:22.642Z,12.40
2017-10-02T00:37:50.979Z,12.40
2017-10-02T00:40:18.750Z,12.40
2017-10-02T00:42:47.094Z,12.40
2017-10-02T00:45:14.677Z,12.40
2017-10-02T00:47:42.304Z,12.40
2017-10-02T00:50:10.643Z,12.50
2017-10-02T00:52:38.215Z,12.40
2017-10-02T00:55:06.600Z,12.50
2017-10-02T00:57:34.169Z,12.40
2017-10-02T01:00:01.827Z,12.50
2017-10-02T01:02:29.616Z,12.50
2017-10-02T01:04:58.061Z,12.50
2017-10-02T01:07:25.633Z,12.50
2017-10-02T01:09:53.249Z,12.50
2017-10-02T01:12:20.840Z,12.50
2017-10-02T01:14:48.419Z,12.50
2017-10-02T01:17:16.149Z,12.50
2017-10-02T01:19:43.726Z,12.50
2017-10-02T01:22:11.304Z,12.50
2017-10-02T01:24:39.032Z,12.40
2017-10-02T01:27:07.366Z,12.50
2017-10-02T01:29:35.710Z,12.50
2017-10-02T01:32:03.337Z,12.50
2017-10-02T01:34:30.909Z,12.50
2017-10-02T01:36:58.478Z,12.50
2017-10-02T01:39:26.866Z,12.50
2017-10-02T01:41:54.446Z,12.50
2017-10-02T01:44:22.014Z,12.60
2017-10-02T01:46:49.791Z,12.50
2017-10-02T01:49:18.218Z,12.60
2017-10-02T01:51:45.787Z,12.60
2017-10-02T01:54:14.428Z,12.60
2017-10-02T01:56:42.072Z,12.60
2017-10-02T01:59:09.654Z,12.60
2017-10-02T02:01:38.102Z,12.70
2017-10-02T02:04:05.678Z,12.70
2017-10-02T02:06:33.269Z,12.70
2017-10-02T02:09:00.987Z,12.70
2017-10-02T02:11:28.558Z,12.70
2017-10-02T02:13:56.126Z,12.70
2017-10-02T02:16:23.742Z,12.70
2017-10-02T02:18:51.318Z,12.70
2017-10-02T02:21:19.654Z,12.80
2017-10-02T02:23:47.291Z,12.80
2017-10-02T02:26:14.857Z,12.80
2017-10-02T02:28:42.426Z,12.90
2017-10-02T02:31:10.950Z,12.90
2017-10-02T02:33:38.605Z,12.90
2017-10-02T02:36:06.177Z,12.90
2017-10-02T02:38:34.566Z,12.90
2017-10-02T02:41:02.143Z,12.40
2017-10-02T02:43:29.718Z,12.90
2017-10-02T02:45:58.241Z,13.00
2017-10-02T02:48:25.810Z,12.90
2017-10-02T02:50:53.390Z,13.00
2017-10-02T02:53:21.010Z,13.00
2017-10-02T02:55:48.583Z,13.10
2017-10-02T02:58:16.158Z,13.10
2017-10-02T03:00:43.873Z,13.10
2017-10-02T03:03:11.447Z,13.20
2017-10-02T03:05:39.024Z,13.20
2017-10-02T03:08:06.658Z,13.10
2017-10-02T03:10:35.487Z,13.20
2017-10-02T03:13:03.059Z,13.20
2017-10-02T03:15:30.698Z,13.20
2017-10-02T03:17:58.275Z,13.20
2017-10-02T03:20:25.857Z,13.20
2017-10-02T03:22:53.594Z,13.20
2017-10-02T03:25:21.940Z,13.20
2017-10-02T03:27:50.286Z,13.20
2017-10-02T03:30:17.915Z,13.20
2017-10-02T03:32:45.989Z,13.30
2017-10-02T03:35:13.595Z,13.30
2017-10-02T03:37:41.213Z,13.30
2017-10-02T03:40:10.892Z,13.30
2017-10-02T03:42:39.437Z,13.50
2017-10-02T03:45:07.051Z,13.30
2017-10-02T03:47:34.619Z,13.30
2017-10-02T03:50:02.187Z,13.20
2017-10-02T03:52:30.582Z,13.20
2017-10-02T03:54:58.934Z,13.20
2017-10-02T03:57:26.513Z,13.20
2017-10-02T03:59:54.130Z,13.10
2017-10-02T04:02:21.706Z,13.00
2017-10-02T04:04:49.278Z,13.00
2017-10-02T04:07:16.904Z,12.90
2017-10-02T04:09:44.478Z,12.80
2017-10-02T04:12:12.819Z,12.80
2017-10-02T04:14:40.439Z,12.70
2017-10-02T04:17:08.026Z,12.70
2017-10-02T04:19:35.603Z,12.60
2017-10-02T04:22:03.233Z,12.50
2017-10-02T04:24:30.802Z,12.50
2017-10-02T04:26:58.378Z,12.50
2017-10-02T04:29:26.123Z,12.50
2017-10-02T04:31:53.822Z,12.50
2017-10-02T04:34:21.522Z,12.40
2017-10-02T04:36:49.310Z,12.40
2017-10-02T04:39:16.879Z,12.40
2017-10-02T04:41:44.450Z,12.40
2017-10-02T04:44:12.062Z,12.40
2017-10-02T04:46:39.766Z,12.30
2017-10-02T04:49:07.353Z,12.30
2017-10-02T04:51:35.079Z,12.30
2017-10-02T04:54:02.735Z,12.30
2017-10-02T04:56:30.429Z,12.30
2017-10-02T04:58:58.838Z,12.10
2017-10-02T05:01:26.419Z,12.10
2017-10-02T05:03:53.986Z,12.10
2017-10-02T05:06:22.477Z,12.10
2017-10-02T05:08:50.818Z,12.10
2017-10-02T05:11:18.397Z,12.10
2017-10-02T05:13:46.151Z,12.20
2017-10-02T05:16:13.727Z,12.10
2017-10-02T05:18:41.311Z,12.20
2017-10-02T05:21:09.747Z,12.10
2017-10-02T05:23:37.322Z,12.10
2017-10-02T05:26:05.658Z,12.10
2017-10-02T05:28:33.438Z,12.00
2017-10-02T05:31:01.766Z,12.10
2017-10-02T05:33:29.338Z,12.10
2017-10-02T05:35:57.728Z,12.10
2017-10-02T05:38:25.305Z,12.10
2017-10-02T05:40:52.874Z,12.10
2017-10-02T05:43:20.501Z,12.10
2017-10-02T05:45:48.078Z,12.10
2017-10-02T05:48:16.414Z,12.10
2017-10-02T05:50:44.190Z,12.10
2017-10-02T05:53:12.533Z,12.10
2017-10-02T05:55:40.163Z,12.10
2017-10-02T05:58:07.951Z,12.10
2017-10-02T06:00:36.303Z,12.00
2017-10-02T06:03:04.650Z,12.10
2017-10-02T06:05:32.281Z,12.10
2017-10-02T06:07:59.849Z,12.10
2017-10-02T06:10:27.417Z,12.10
2017-10-02T06:12:55.049Z,12.20
2017-10-02T06:15:23.386Z,12.30
2017-10-02T06:17:50.950Z,12.20
2017-10-02T06:20:19.342Z,12.20
2017-10-02T06:22:46.915Z,12.20
2017-10-02T06:25:14.494Z,12.20
2017-10-02T06:27:42.892Z,12.30
2017-10-02T06:30:10.461Z,12.20
2017-10-02T06:32:38.047Z,12.30
2017-10-02T06:35:06.448Z,12.30
2017-10-02T06:37:34.031Z,12.30
2017-10-02T06:40:01.610Z,12.30
2017-10-02T06:42:30.150Z,12.40
2017-10-02T06:44:57.726Z,12.40
2017-10-02T06:47:25.307Z,12.40
2017-10-02T06:49:52.928Z,12.40
2017-10-02T06:52:20.502Z,12.40
2017-10-02T06:54:48.093Z,12.40
2017-10-02T06:57:16.619Z,12.50
2017-10-02T06:59:44.197Z,12.40
2017-10-02T07:02:12.534Z,12.40
2017-10-02T07:04:40.328Z,12.40
2017-10-02T07:07:07.911Z,12.40
2017-10-02T07:09:35.479Z,12.40
2017-10-02T07:12:03.252Z,12.40
2017-10-02T07:14:31.592Z,12.40
2017-10-02T07:16:59.183Z,12.40
2017-10-02T07:19:26.867Z,12.40
2017-10-02T07:21:54.443Z,12.50
2017-10-02T07:24:22.787Z,12.50
2017-10-02T07:26:50.518Z,12.40
2017-10-02T07:29:18.163Z,12.50
2017-10-02T07:31:45.747Z,12.50
2017-10-02T07:34:14.127Z,12.50
2017-10-02T07:36:41.708Z,12.50
2017-10-02T07:39:09.293Z,12.60
2017-10-02T07:41:37.867Z,12.60
2017-10-02T07:44:06.193Z,12.70
2017-10-02T07:46:33.763Z,12.60
2017-10-02T07:49:02.343Z,12.70
2017-10-02T07:51:29.910Z,12.70
2017-10-02T07:53:57.491Z,12.70
2017-10-02T07:56:25.274Z,12.80
2017-10-02T07:58:53.618Z,12.80
2017-10-02T08:01:21.970Z,12.80
2017-10-02T08:03:49.594Z,12.80
2017-10-02T08:06:17.164Z,12.80
2017-10-02T08:08:45.503Z,12.90
2017-10-02T08:11:13.290Z,12.80
2017-10-02T08:13:41.635Z,12.90
2017-10-02T08:16:09.325Z,12.90
2017-10-02T08:18:37.150Z,12.90
2017-10-02T08:21:05.482Z,13.00
2017-10-02T08:23:33.079Z,13.00
2017-10-02T08:26:00.690Z,13.00
2017-10-02T08:28:29.025Z,13.10
2017-10-02T08:30:56.594Z,13.10
2017-10-02T08:33:25.087Z,13.20
2017-10-02T08:35:52.658Z,13.10
2017-10-02T08:38:20.239Z,13.20
2017-10-02T08:40:47.867Z,13.20
2017-10-02T08:43:15.438Z,13.20
2017-10-02T08:45:43.773Z,13.30
2017-10-02T08:48:11.417Z,13.30
2017-10-02T08:50:38.995Z,13.30
2017-10-02T08:53:07.333Z,13.40
2017-10-02T08:55:34.965Z,13.40
2017-10-02T08:58:02.554Z,13.40
2017-10-02T09:00:30.883Z,13.50
2017-10-02T09:02:58.498Z,13.40
2017-10-02T09:05:26.068Z,13.50
2017-10-02T09:07:53.642Z,13.50
2017-10-02T09:10:22.046Z,13.60
2017-10-02T09:12:49.619Z,13.60
2017-10-02T09:15:17.200Z,13.60
2017-10-02T09:17:44.826Z,13.60
2017-10-02T09:20:12.394Z,13.70
2017-10-02T09:22:39.955Z,13.70
2017-10-02T09:25:07.590Z,13.70
2017-10-02T09:27:35.171Z,13.80
2017-10-02T09:30:02.741Z,14.00
2017-10-02T09:32:30.508Z,14.10
2017-10-02T09:34:58.846Z,14.50
2017-10-02T09:37:26.422Z,14.50
2017-10-02T09:39:54.046Z,14.60
2017-10-02T09:42:22.390Z,14.80
2017-10-02T09:44:49.957Z,14.70
2017-10-02T09:47:18.330Z,14.90
2017-10-02T09:49:46.669Z,14.90
2017-10-02T09:52:14.243Z,14.80
2017-10-02T09:54:41.862Z,14.90
2017-10-02T09:57:10.211Z,14.90
2017-10-02T09:59:37.787Z,14.90
2017-10-02T10:02:06.357Z,14.90
2017-10-02T10:04:33.955Z,14.90
2017-10-02T10:07:01.522Z,14.90
2017-10-02T10:09:29.306Z,15.00
2017-10-02T10:11:56.891Z,14.90
2017-10-02T10:14:24.455Z,14.90
2017-10-02T10:16:52.222Z,14.90
2017-10-02T10:19:20.559Z,15.00
2017-10-02T10:21:48.147Z,15.00
2017-10-02T10:24:15.834Z,15.10
2017-10-02T10:26:43.478Z,15.10
2017-10-02T10:29:11.052Z,15.10
2017-10-02T10:31:39.621Z,15.30
2017-10-02T10:34:08.170Z,15.30
2017-10-02T10:36:35.751Z,15.30
2017-10-02T10:39:03.484Z,15.30
2017-10-02T10:41:31.838Z,15.40
2017-10-02T10:44:00.175Z,15.40
2017-10-02T10:46:27.966Z,15.40
2017-10-02T10:48:56.294Z,15.50
2017-10-02T10:51:23.890Z,15.50
2017-10-02T10:53:51.516Z,15.60
2017-10-02T10:56:19.852Z,15.70
2017-10-02T10:58:47.476Z,15.70
2017-10-02T11:01:15.262Z,15.90
2017-10-02T11:03:43.594Z,16.40
2017-10-02T11:06:11.159Z,16.30
2017-10-02T11:08:38.927Z,16.60
2017-10-02T11:11:07.263Z,16.90
2017-10-02T11:13:34.866Z,16.80
2017-10-02T11:16:02.484Z,17.00
2017-10-02T11:18:30.076Z,17.00
2017-10-02T11:20:57.637Z,16.90
2017-10-02T11:23:25.262Z,16.90
2017-10-02T11:25:52.829Z,16.90
2017-10-02T11:28:20.401Z,16.80
2017-10-02T11:30:48.038Z,16.70
2017-10-02T11:33:16.369Z,16.80
2017-10-02T11:35:43.942Z,16.80
2017-10-02T11:38:12.328Z,16.70
2017-10-02T11:40:39.893Z,16.70
2017-10-02T11:43:07.471Z,16.70
2017-10-02T11:45:35.097Z,16.60
2017-10-02T11:48:02.662Z,16.50
2017-10-02T11:50:30.226Z,16.40
2017-10-02T11:52:58.814Z,16.20
2017-10-02T11:55:26.393Z,16.20
2017-10-02T11:57:53.968Z,16.10
2017-10-02T12:00:22.375Z,16.00
2017-10-02T12:02:49.944Z,16.00
2017-10-02T12:05:17.591Z,16.00
2017-10-02T12:07:45.374Z,15.90
2017-10-02T12:10:13.702Z,15.80
2017-10-02T12:12:41.298Z,15.80
2017-10-02T12:15:08.972Z,15.80
2017-10-02T12:17:39.155Z,15.80
2017-10-02T12:20:07.097Z,16.00
2017-10-02T12:22:35.698Z,16.10
2017-10-02T12:25:04.570Z,16.20
2017-10-02T12:27:32.532Z,16.40
2017-10-02T12:30:01.525Z,16.80
2017-10-02T12:32:30.424Z,16.80
2017-10-02T12:34:59.014Z,17.30
2017-10-02T12:37:27.589Z,17.30
2017-10-02T12:39:55.958Z,17.50
2017-10-02T12:42:24.539Z,17.70
2017-10-02T12:44:53.360Z,18.10
2017-10-02T12:47:22.198Z,18.20
2017-10-02T12:49:49.786Z,18.20
2017-10-02T12:52:18.380Z,18.30
2017-10-02T12:54:46.438Z,18.30
2017-10-02T12:57:15.186Z,18.40
2017-10-02T12:59:44.167Z,18.40
2017-10-02T13:02:12.941Z,18.40
2017-10-02T13:04:41.206Z,18.40
2017-10-02T13:07:10.753Z,18.40
2017-10-02T13:09:39.039Z,18.40
2017-10-02T13:12:08.897Z,18.30
2017-10-02T13:14:37.174Z,18.20
2017-10-02T13:17:05.389Z,18.20
2017-10-02T13:19:33.530Z,18.10
2017-10-02T13:22:01.402Z,17.90
2017-10-02T13:24:29.703Z,17.80
2017-10-02T13:26:57.725Z,17.70
2017-10-02T13:31:53.339Z,17.60
2017-10-02T13:34:21.478Z,17.60
2017-10-02T13:36:49.953Z,17.60
2017-10-02T13:39:19.809Z,17.60
2017-10-02T13:41:47.947Z,17.70
2017-10-02T13:44:16.629Z,17.70
2017-10-02T13:46:45.595Z,17.60
2017-10-02T13:49:14.751Z,17.60
2017-10-02T13:51:43.117Z,17.60
2017-10-02T13:54:10.962Z,17.70
2017-10-02T13:56:38.819Z,17.60
2017-10-02T13:59:06.421Z,17.60
2017-10-02T14:01:34.042Z,17.50
2017-10-02T14:04:01.614Z,17.50
2017-10-02T14:06:29.182Z,17.60
2017-10-02T14:08:56.811Z,17.50
2017-10-02T14:11:25.206Z,17.40
2017-10-02T14:13:52.773Z,17.30
2017-10-02T14:16:21.242Z,17.30
2017-10-02T14:18:48.827Z,17.30
2017-10-02T14:21:16.420Z,17.30
2017-10-02T14:23:44.811Z,17.20
2017-10-02T14:26:12.385Z,17.20
2017-10-02T14:28:39.955Z,17.20
2017-10-02T14:31:08.565Z,17.30
2017-10-02T14:33:36.139Z,17.30
2017-10-02T14:36:03.711Z,17.20
2017-10-02T14:38:31.334Z,17.20
2017-10-02T14:40:58.902Z,17.20
2017-10-02T14:43:27.283Z,17.00
2017-10-02T14:45:55.685Z,17.00
2017-10-02T14:48:23.247Z,17.00
2017-10-02T14:50:50.821Z,16.90
2017-10-02T14:53:19.198Z,17.10
2017-10-02T14:55:47.535Z,17.10
2017-10-02T14:58:15.120Z,17.10
2017-10-02T15:00:46.770Z,17.10
2017-10-02T15:03:14.647Z,17.00
2017-10-02T15:05:42.214Z,16.90
2017-10-02T15:08:10.610Z,16.70
2017-10-02T15:10:38.194Z,16.70
2017-10-02T15:13:05.778Z,16.70
2017-10-02T15:15:34.413Z,16.80
2017-10-02T15:18:02.030Z,16.80
2017-10-02T15:20:29.609Z,16.90
2017-10-02T15:22:57.235Z,16.80
2017-10-02T15:25:24.810Z,17.80
2017-10-02T15:27:52.375Z,16.70
2017-10-02T15:30:20.939Z,16.60
2017-10-02T15:32:49.274Z,16.60
2017-10-02T15:35:17.233Z,16.60
2017-10-02T15:37:44.851Z,16.60
2017-10-02T15:40:12.419Z,16.50
2017-10-02T15:42:39.999Z,16.50
2017-10-02T15:45:07.726Z,16.50
2017-10-02T15:47:36.063Z,16.40
2017-10-02T15:50:03.633Z,16.40
2017-10-02T15:52:32.159Z,16.40
2017-10-02T15:54:59.721Z,16.40
2017-10-02T15:57:27.289Z,16.40
2017-10-02T15:59:55.678Z,16.30
2017-10-02T16:02:23.251Z,16.30
2017-10-02T16:04:50.825Z,16.20
2017-10-02T16:07:18.588Z,16.20
2017-10-02T16:09:47.015Z,16.10
2017-10-02T16:12:14.583Z,16.10
2017-10-02T16:14:42.690Z,16.10
2017-10-02T16:17:10.259Z,16.00
2017-10-02T16:19:37.838Z,16.00
2017-10-02T16:22:06.263Z,15.90
2017-10-02T16:24:33.860Z,15.90
2017-10-02T16:27:01.476Z,15.90
2017-10-02T16:29:29.106Z,15.90
2017-10-02T16:31:56.689Z,14.90
2017-10-02T16:34:25.108Z,15.80
2017-10-02T16:36:53.711Z,15.80
2017-10-02T16:39:22.051Z,15.80
2017-10-02T16:41:49.621Z,15.80
2017-10-02T16:44:18.154Z,15.80
2017-10-02T16:46:45.743Z,15.80
2017-10-02T16:49:13.314Z,15.80
2017-10-02T16:51:40.946Z,15.80
2017-10-02T16:54:08.518Z,15.70
2017-10-02T16:56:36.136Z,15.70
2017-10-02T16:59:04.017Z,15.60
2017-10-02T17:01:31.607Z,15.60
2017-10-02T17:03:59.178Z,15.50
2017-10-02T17:06:26.791Z,15.40
2017-10-02T17:08:55.223Z,15.30
2017-10-02T17:11:22.975Z,15.30
2017-10-02T17:13:51.528Z,15.20
2017-10-02T17:16:19.207Z,15.20
2017-10-02T17:18:47.541Z,15.10
2017-10-02T17:21:15.153Z,15.10
2017-10-02T17:23:42.720Z,15.10
2017-10-02T17:26:10.326Z,15.10
2017-10-02T17:28:40.157Z,15.00
2017-10-02T17:31:07.738Z,15.00
2017-10-02T17:33:36.079Z,14.90
2017-10-02T17:36:03.694Z,14.90
2017-10-02T17:38:31.270Z,14.90
2017-10-02T17:40:58.904Z,14.80
2017-10-02T17:43:26.538Z,14.90
2017-10-02T17:45:54.113Z,14.80
2017-10-02T17:48:22.554Z,14.80
2017-10-02T17:50:50.274Z,14.80
2017-10-02T17:53:17.837Z,14.80
2017-10-02T17:55:47.099Z,14.70
2017-10-02T17:58:14.991Z,14.70
2017-10-02T18:00:43.447Z,14.70
2017-10-02T18:03:11.029Z,14.70
2017-10-02T18:05:39.679Z,14.70
2017-10-02T18:08:07.374Z,14.70
2017-10-02T18:10:34.981Z,14.60
2017-10-02T18:13:03.461Z,14.60
2017-10-02T18:15:31.029Z,14.60
2017-10-02T18:17:58.648Z,14.60
2017-10-02T18:20:27.141Z,14.60
2017-10-02T18:22:54.731Z,14.60
2017-10-02T18:25:22.303Z,14.50
2017-10-02T18:27:50.690Z,14.50
2017-10-02T18:30:19.314Z,14.50
2017-10-02T18:32:46.936Z,14.40
2017-10-02T18:35:14.597Z,14.40
2017-10-02T18:37:42.170Z,14.40
2017-10-02T18:40:10.074Z,14.40
2017-10-02T18:42:37.701Z,14.40
2017-10-02T18:45:06.749Z,14.40
2017-10-02T18:47:34.329Z,14.40
2017-10-02T18:50:02.329Z,14.40
2017-10-02T18:52:30.702Z,14.40
2017-10-02T18:54:59.223Z,14.40
2017-10-02T18:57:27.802Z,14.40
2017-10-02T18:59:55.365Z,14.40
2017-10-02T19:02:24.308Z,14.40
2017-10-02T19:04:51.930Z,14.40
2017-10-02T19:07:20.521Z,14.30
2017-10-02T19:09:49.114Z,14.30
2017-10-02T19:12:17.515Z,14.30
2017-10-02T19:14:45.342Z,14.30
2017-10-02T19:17:13.670Z,14.30
2017-10-02T19:19:41.770Z,14.30
2017-10-02T19:22:09.362Z,14.30
2017-10-02T19:24:36.936Z,14.30
2017-10-02T19:27:05.271Z,14.20
2017-10-02T19:29:32.884Z,14.20
2017-10-02T19:32:01.196Z,14.20
2017-10-02T19:34:30.037Z,14.20
2017-10-02T19:37:10.665Z,14.20
2017-10-02T19:39:41.116Z,14.10
2017-10-02T19:42:10.359Z,14.10
2017-10-02T19:44:38.218Z,14.10
2017-10-02T19:47:06.203Z,14.00
2017-10-02T19:49:33.775Z,13.90
2017-10-02T19:52:02.500Z,13.80
2017-10-02T19:54:31.139Z,13.70
2017-10-02T19:56:58.863Z,13.70
2017-10-02T19:59:27.230Z,13.60
2017-10-02T20:01:55.626Z,13.60
2017-10-02T20:04:23.324Z,13.50
2017-10-02T20:06:51.893Z,13.50
2017-10-02T20:09:20.656Z,13.50
2017-10-02T20:11:49.714Z,13.50
2017-10-02T20:16:56.880Z,13.50
2017-10-02T20:19:27.264Z,13.50
2017-10-02T20:21:56.179Z,13.50
2017-10-02T20:24:25.243Z,13.50
2017-10-02T20:26:53.808Z,13.50
2017-10-02T20:29:22.338Z,13.50
2017-10-02T20:31:49.916Z,13.50
2017-10-02T20:34:17.482Z,13.50
2017-10-02T20:36:45.095Z,13.50
2017-10-02T20:39:12.664Z,13.50
2017-10-02T20:41:40.246Z,13.40
2017-10-02T20:44:08.638Z,13.40
2017-10-02T20:46:36.230Z,13.40
2017-10-02T20:49:04.575Z,13.40
2017-10-02T20:51:32.214Z,13.40
2017-10-02T20:53:59.803Z,13.40
2017-10-02T20:56:27.381Z,13.30
2017-10-02T20:58:55.146Z,13.30
2017-10-02T21:01:22.722Z,13.20
2017-10-02T21:03:51.076Z,13.20
2017-10-02T21:06:19.654Z,13.20
2017-10-02T21:08:47.990Z,13.10
2017-10-02T21:11:15.571Z,13.10
2017-10-02T21:13:43.203Z,13.10
2017-10-02T21:16:11.543Z,13.00
2017-10-02T21:18:39.115Z,13.00
2017-10-02T21:21:07.494Z,13.00
2017-10-02T21:23:35.081Z,13.00
2017-10-02T21:26:02.654Z,13.00
2017-10-02T21:28:31.042Z,13.00
2017-10-02T21:30:58.611Z,12.90
2017-10-02T21:33:26.186Z,13.00
2017-10-02T21:35:53.913Z,12.90
2017-10-02T21:38:21.491Z,12.90
2017-10-02T21:40:49.834Z,12.90
2017-10-02T21:43:17.451Z,12.90
2017-10-02T21:45:45.034Z,12.90
2017-10-02T21:48:12.609Z,12.80
2017-10-02T21:50:40.222Z,12.80
2017-10-02T21:53:07.795Z,12.80
2017-10-02T21:55:35.367Z,12.80
2017-10-02T21:58:03.098Z,12.80
2017-10-02T22:00:30.673Z,12.80
2017-10-02T22:02:58.325Z,12.90
2017-10-02T22:05:25.946Z,12.80
2017-10-02T22:07:53.620Z,12.80
2017-10-02T22:10:21.190Z,12.80
2017-10-02T22:12:49.682Z,12.70
2017-10-02T22:15:17.254Z,12.70
2017-10-02T22:17:44.829Z,12.70
2017-10-02T22:20:12.478Z,12.70
2017-10-02T22:22:40.142Z,12.70
2017-10-02T22:25:08.489Z,12.70
2017-10-02T22:27:36.117Z,12.70
2017-10-02T22:30:03.702Z,12.70
2017-10-02T22:32:31.286Z,12.70
2017-10-02T22:34:59.095Z,12.70
2017-10-02T22:37:26.688Z,12.70
2017-10-02T22:39:54.262Z,12.80
2017-10-02T22:42:22.659Z,12.80
2017-10-02T22:44:50.229Z,12.80
2017-10-02T22:47:17.802Z,12.90
2017-10-02T22:49:45.426Z,12.90
2017-10-02T22:52:12.998Z,12.90
2017-10-02T22:54:41.341Z,13.00
2017-10-02T22:57:08.957Z,13.00
2017-10-02T22:59:36.536Z,13.00
2017-10-02T23:02:04.119Z,13.00
2017-10-02T23:04:31.855Z,12.90
2017-10-02T23:07:00.196Z,12.90
2017-10-02T23:09:27.780Z,12.90
2017-10-02T23:11:55.609Z,12.90
2017-10-02T23:14:24.040Z,12.80
2017-10-02T23:16:51.621Z,12.80
2017-10-02T23:19:20.150Z,12.80
2017-10-02T23:21:47.727Z,12.80
2017-10-02T23:24:16.078Z,12.80
2017-10-02T23:26:44.471Z,12.80
2017-10-02T23:29:12.048Z,12.80
2017-10-02T23:31:39.643Z,12.80
2017-10-02T23:34:08.035Z,12.70
2017-10-02T23:36:35.619Z,12.70
2017-10-02T23:39:03.200Z,12.70
2017-10-02T23:41:30.925Z,12.60
2017-10-02T23:43:58.494Z,12.60
2017-10-02T23:46:26.074Z,12.50
2017-10-02T23:48:53.700Z,12.50
2017-10-02T23:51:21.277Z,12.50
2017-10-02T23:53:48.856Z,12.50
2017-10-02T23:56:17.346Z,12.40
2017-10-02T23:58:44.922Z,12.40
